Time;durP1;ratioP1;P1;durP2;ratioP2;P2;SDS_P1;SDS_P2;PMS_P1;PMS_P2;Temp;Humidity;BMP_temperature;BMP_pressure;BME280_temperature;BME280_humidity;BME280_pressure;Samples;Min_cycle;Max_cycle;Signal;HPM_P1;HPM_P2
2022/11/18 00:01:50;;;;;;;6.40;3.20;;;9.10;99.90;;;;;;2617389;54;20428;-81
2022/11/18 00:07:38;;;;;;;5.27;3.20;;;9.10;99.90;;;;;;2617105;54;20126;-79
2022/11/18 00:19:51;;;;;;;6.30;3.07;;;9.10;99.90;;;;;;2617128;39;20780;-79
2022/11/18 00:25:39;;;;;;;5.80;3.30;;;9.10;99.90;;;;;;2616236;54;20154;-80
2022/11/18 00:31:26;;;;;;;4.30;2.73;;;9.10;99.90;;;;;;2616804;54;20157;-79
2022/11/18 00:37:14;;;;;;;7.67;3.83;;;9.10;99.90;;;;;;2617265;39;20621;-78
2022/11/18 00:43:02;;;;;;;9.43;2.97;;;9.00;99.90;;;;;;2616186;54;20230;-80
2022/11/18 00:48:50;;;;;;;5.93;3.03;;;9.00;99.90;;;;;;2616499;54;20126;-80
2022/11/18 00:54:38;;;;;;;3.80;2.70;;;9.20;99.90;;;;;;2615499;54;20151;-80
2022/11/18 01:00:25;;;;;;;5.50;3.20;;;9.10;99.90;;;;;;2616030;54;20135;-79
2022/11/18 01:06:13;;;;;;;10.30;3.70;;;9.20;99.90;;;;;;2613717;54;20229;-80
2022/11/18 01:18:07;;;;;;;10.37;2.83;;;9.10;99.90;;;;;;2614274;54;20471;-79
2022/11/18 01:23:55;;;;;;;15.87;4.10;;;9.00;99.90;;;;;;2612472;54;21032;-78
2022/11/18 01:29:43;;;;;;;14.50;4.20;;;9.00;99.90;;;;;;2614600;54;20137;-79
2022/11/18 01:35:39;;;;;;;5.50;2.73;;;9.00;99.90;;;;;;2614566;54;20243;-79
2022/11/18 01:41:27;;;;;;;5.57;3.00;;;9.10;99.90;;;;;;2613757;54;20391;-79
2022/11/18 01:47:14;;;;;;;5.60;3.00;;;9.00;99.90;;;;;;2614161;54;20134;-77
2022/11/18 01:53:07;;;;;;;8.13;3.00;;;8.80;99.90;;;;;;2615979;54;20151;-78
2022/11/18 02:05:25;;;;;;;7.33;2.90;;;8.70;99.90;;;;;;2615694;54;20398;-77
2022/11/18 02:17:42;;;;;;;6.90;3.77;;;8.60;99.90;;;;;;2616286;54;20904;-77
2022/11/18 02:30:09;;;;;;;5.70;3.10;;;8.50;99.90;;;;;;2616093;54;20407;-77
2022/11/18 02:42:32;;;;;;;6.57;4.00;;;8.00;99.90;;;;;;2614151;54;20455;-76
2022/11/18 02:48:23;;;;;;;5.27;3.13;;;7.80;99.90;;;;;;2615761;54;20387;-77
2022/11/18 02:54:12;;;;;;;4.90;3.53;;;7.80;99.90;;;;;;2615746;54;20936;-79
2022/11/18 02:59:59;;;;;;;7.43;3.17;;;8.00;99.90;;;;;;2616942;54;20362;-77
2022/11/18 03:12:33;;;;;;;7.60;3.20;;;8.20;99.90;;;;;;2616081;54;20903;-77
2022/11/18 03:35:14;;;;;;;4.30;3.37;;;8.80;99.90;;;;;;2615732;54;21018;-77
2022/11/18 03:41:07;;;;;;;8.33;3.70;;;8.80;99.90;;;;;;2615152;54;20492;-78
2022/11/18 03:51:05;;;;;;;12.90;4.77;;;8.80;99.90;;;;;;2614732;54;20956;-78
2022/11/18 04:03:27;;;;;;;8.47;3.80;;;8.70;99.90;;;;;;2614351;54;20389;-77
2022/11/18 04:09:20;;;;;;;7.50;3.80;;;8.70;99.90;;;;;;2613491;54;20418;-77
2022/11/18 04:12:35;;;;;;;8.10;4.03;;;8.70;99.90;;;;;;2614190;54;20419;-77
2022/11/18 04:18:22;;;;;;;9.50;4.53;;;8.70;99.90;;;;;;2613981;54;20496;-78
2022/11/18 04:24:09;;;;;;;6.27;3.70;;;8.70;99.90;;;;;;2613564;54;20415;-78
2022/11/18 04:29:57;;;;;;;12.87;4.40;;;8.70;99.90;;;;;;2615584;54;20423;-78
2022/11/18 04:35:46;;;;;;;9.67;4.30;;;8.70;99.90;;;;;;2615260;39;20497;-78
2022/11/18 04:47:40;;;;;;;7.80;4.40;;;8.60;99.90;;;;;;2616402;54;20395;-77
2022/11/18 04:50:43;;;;;;;9.23;4.30;;;8.50;99.90;;;;;;2615890;47;20800;-78
2022/11/18 04:53:09;;;;;;;5.10;4.60;;;8.60;99.90;;;;;;2615076;47;20434;-78
2022/11/18 04:59:01;;;;;;;5.80;4.63;;;8.50;99.90;;;;;;2616437;54;20139;-78
2022/11/18 05:04:48;;;;;;;5.17;3.93;;;8.40;99.90;;;;;;2615210;54;20394;-77
2022/11/18 05:10:37;;;;;;;11.23;4.37;;;8.30;99.90;;;;;;2615672;54;20130;-77
2022/11/18 05:16:24;;;;;;;6.97;3.70;;;8.40;99.90;;;;;;2616083;54;20383;-78
2022/11/18 05:22:14;;;;;;;7.90;4.90;;;8.40;99.90;;;;;;2616146;54;20138;-77
2022/11/18 05:28:02;;;;;;;8.80;4.57;;;8.60;99.90;;;;;;2616575;54;20374;-78
2022/11/18 05:33:49;;;;;;;7.07;5.30;;;8.70;99.90;;;;;;2616275;54;20145;-78
2022/11/18 05:39:37;;;;;;;7.90;5.53;;;8.80;99.90;;;;;;2616825;46;20153;-77
2022/11/18 05:45:24;;;;;;;6.63;4.53;;;8.90;99.90;;;;;;2617497;31;20626;-77
2022/11/18 05:51:12;;;;;;;6.90;4.60;;;8.90;99.90;;;;;;2617007;54;20143;-78
2022/11/18 05:57:00;;;;;;;7.90;5.47;;;8.90;99.90;;;;;;2616951;54;20134;-78
2022/11/18 06:02:52;;;;;;;12.63;6.47;;;8.90;99.90;;;;;;2617057;54;20143;-79
2022/11/18 06:15:02;;;;;;;12.17;5.50;;;8.80;99.90;;;;;;2615295;39;20874;-78
2022/11/18 06:20:23;;;;;;;9.37;6.90;;;8.60;99.90;;;;;;2613627;54;20422;-79
2022/11/18 06:26:14;;;;;;;10.83;7.00;;;8.50;99.90;;;;;;2616278;39;20712;-77
2022/11/18 06:32:02;;;;;;;12.80;7.20;;;8.50;99.90;;;;;;2614244;54;20418;-79
2022/11/18 06:37:50;;;;;;;14.50;9.30;;;8.60;99.90;;;;;;2611897;54;20965;-77
2022/11/18 06:43:38;;;;;;;13.13;9.37;;;8.50;99.90;;;;;;2615615;39;20604;-79
2022/11/18 06:49:27;;;;;;;10.97;7.40;;;8.60;99.90;;;;;;2616116;54;20123;-76
2022/11/18 06:55:14;;;;;;;9.30;6.70;;;8.50;99.90;;;;;;2612874;54;20382;-79
2022/11/18 07:01:13;;;;;;;9.33;8.00;;;8.50;99.90;;;;;;2615263;54;20166;-78
2022/11/18 07:10:22;;;;;;;14.47;8.20;;;8.50;99.90;;;;;;2614922;54;20443;-78
2022/11/18 07:16:11;;;;;;;12.33;7.40;;;8.50;99.90;;;;;;2615494;54;20221;-77
2022/11/18 07:21:59;;;;;;;15.57;7.97;;;8.50;99.90;;;;;;2615181;54;20399;-78
2022/11/18 07:27:46;;;;;;;15.37;6.73;;;8.50;99.90;;;;;;2616156;54;20175;-77
2022/11/18 07:33:35;;;;;;;11.43;6.40;;;8.60;99.90;;;;;;2617013;54;20126;-78
2022/11/18 07:39:23;;;;;;;10.37;6.10;;;8.60;99.90;;;;;;2616850;54;20964;-78
2022/11/18 07:45:11;;;;;;;14.70;7.40;;;8.70;99.90;;;;;;2617000;54;20134;-77
2022/11/18 07:51:00;;;;;;;10.53;6.57;;;8.90;99.90;;;;;;2616391;54;20423;-78
2022/11/18 07:56:47;;;;;;;15.07;7.67;;;9.00;99.90;;;;;;2617032;54;20412;-76
2022/11/18 08:02:35;;;;;;;16.47;8.60;;;9.20;99.90;;;;;;2616798;46;20663;-75
2022/11/18 08:08:23;;;;;;;9.73;7.40;;;9.30;99.90;;;;;;2617362;54;20134;-76
2022/11/18 08:14:11;;;;;;;7.43;6.30;;;9.50;99.90;;;;;;2618126;54;20134;-75
2022/11/18 08:20:16;;;;;;;11.60;6.23;;;9.60;99.90;;;;;;2616805;46;20330;-78
2022/11/18 08:26:09;;;;;;;11.50;5.70;;;9.80;99.90;;;;;;2615866;54;20391;-77
2022/11/18 08:31:56;;;;;;;15.77;5.60;;;9.90;99.90;;;;;;2615703;54;20406;-79
2022/11/18 08:37:43;;;;;;;8.50;5.27;;;9.90;99.90;;;;;;2616032;54;20187;-76
2022/11/18 08:43:30;;;;;;;8.30;5.40;;;10.00;99.90;;;;;;2615355;54;20521;-79
2022/11/18 08:49:18;;;;;;;11.53;7.17;;;10.20;99.90;;;;;;2615475;54;20172;-78
2022/11/18 08:55:05;;;;;;;8.77;5.40;;;10.30;99.90;;;;;;2616391;54;20754;-76
2022/11/18 09:00:52;;;;;;;8.93;5.80;;;10.30;99.90;;;;;;2616897;54;20382;-76
2022/11/18 09:06:40;;;;;;;10.33;5.67;;;10.30;99.90;;;;;;2616634;54;20294;-77
2022/11/18 09:12:28;;;;;;;9.00;5.57;;;10.30;99.90;;;;;;2616951;46;20158;-76
2022/11/18 09:22:09;;;;;;;8.50;5.20;;;10.60;99.90;;;;;;2617774;54;20391;-76
2022/11/18 09:27:56;;;;;;;8.17;6.27;;;10.60;99.90;;;;;;2616744;54;20410;-77
2022/11/18 09:33:44;;;;;;;7.47;5.47;;;10.70;99.90;;;;;;2618210;46;20407;-76
2022/11/18 09:39:36;;;;;;;8.13;6.80;;;11.00;99.90;;;;;;2617634;54;20466;-77
2022/11/18 09:51:51;;;;;;;7.40;6.17;;;11.00;99.90;;;;;;2616574;46;20444;-77
2022/11/18 09:57:43;;;;;;;11.30;6.40;;;10.90;99.90;;;;;;2616537;54;20391;-76
2022/11/18 10:03:32;;;;;;;10.47;7.43;;;11.30;99.90;;;;;;2615899;54;20574;-76
2022/11/18 10:09:40;;;;;;;8.70;5.80;;;11.20;99.90;;;;;;2615772;54;20388;-78
2022/11/18 10:25:14;;;;;;;6.80;6.20;;;11.40;99.90;;;;;;2614961;54;20419;-78
2022/11/18 10:31:10;;;;;;;6.93;5.43;;;11.90;99.90;;;;;;2615122;54;20376;-78
2022/11/18 10:33:37;;;;;;;11.87;6.47;;;12.60;99.90;;;;;;2615363;47;20430;-77
2022/11/18 10:36:11;;;;;;;6.50;5.33;;;12.30;99.90;;;;;;2615683;47;20445;-77
2022/11/18 10:42:04;;;;;;;9.00;4.50;;;12.40;99.90;;;;;;2615798;54;20415;-78
2022/11/18 10:47:57;;;;;;;6.00;5.03;;;13.30;99.90;;;;;;2615848;54;20404;-78
2022/11/18 10:53:44;;;;;;;13.60;5.50;;;15.00;99.90;;;;;;2616162;54;20383;-79
2022/11/18 10:59:49;;;;;;;13.67;5.47;;;15.10;99.90;;;;;;2616253;54;20215;-77
2022/11/18 11:05:37;;;;;;;6.53;4.30;;;14.70;99.90;;;;;;2616391;54;20404;-78
2022/11/18 11:11:31;;;;;;;5.53;4.43;;;15.30;99.90;;;;;;2618044;54;20130;-78
2022/11/18 11:23:33;;;;;;;10.20;4.57;;;13.60;99.90;;;;;;2617806;54;20932;-78
2022/11/18 11:42:53;;;;;;;8.70;4.80;;;14.30;99.90;;;;;;2616951;54;20403;-79
2022/11/18 11:48:46;;;;;;;9.13;5.33;;;16.80;83.90;;;;;;2616254;54;20512;-80
2022/11/18 12:01:15;;;;;;;8.00;5.30;;;16.60;65.60;;;;;;2614611;54;20383;-81
2022/11/18 12:07:03;;;;;;;6.70;5.90;;;18.20;56.90;;;;;;2615442;54;20549;-79
2022/11/18 12:19:24;;;;;;;5.57;5.20;;;16.40;55.10;;;;;;2617870;54;20474;-79
2022/11/18 12:32:02;;;;;;;6.03;5.43;;;19.70;45.80;;;;;;2617374;54;20375;-76
2022/11/18 12:37:50;;;;;;;8.87;5.30;;;15.00;67.90;;;;;;2619210;54;20386;-80
2022/11/18 12:50:06;;;;;;;4.90;4.00;;;17.40;60.00;;;;;;2619267;39;20754;-81
2022/11/18 12:55:56;;;;;;;9.30;5.60;;;14.00;97.00;;;;;;2618139;54;20896;-81
2022/11/18 13:01:43;;;;;;;12.43;5.77;;;13.10;99.90;;;;;;2618424;54;20412;-80
2022/11/18 13:24:28;;;;;;;5.30;4.83;;;13.00;99.90;;;;;;2614263;54;20391;-76
2022/11/18 13:30:17;;;;;;;10.37;5.83;;;14.30;99.90;;;;;;2615493;54;20432;-78
2022/11/18 13:36:17;;;;;;;10.27;5.47;;;13.70;99.90;;;;;;2611799;54;20383;-79
2022/11/18 13:48:19;;;;;;;10.37;5.50;;;13.00;99.90;;;;;;2613443;46;20410;-78
2022/11/18 13:54:10;;;;;;;5.47;4.87;;;14.80;99.90;;;;;;2614715;54;20379;-79
2022/11/18 14:00:04;;;;;;;9.00;5.17;;;15.00;79.20;;;;;;2614541;54;20371;-80
2022/11/18 14:05:54;;;;;;;5.43;4.73;;;15.70;60.50;;;;;;2615184;39;20863;-77
2022/11/18 14:11:44;;;;;;;9.27;6.30;;;18.00;50.70;;;;;;2613660;54;20408;-77
2022/11/18 14:17:31;;;;;;;6.87;6.17;;;16.80;47.90;;;;;;2613690;54;20407;-78
2022/11/18 14:19:58;;;;;;;9.47;5.83;;;16.60;61.50;;;;;;2614185;47;20407;-76
2022/11/18 14:22:26;;;;;;;10.80;6.20;;;16.40;64.70;;;;;;2614035;47;20266;-78
2022/11/18 14:37:51;;;;;;;6.67;5.10;;;14.50;74.70;;;;;;2614422;39;20848;-77
2022/11/18 14:43:39;;;;;;;9.43;5.53;;;13.00;99.90;;;;;;2614262;54;20219;-78
2022/11/18 14:49:31;;;;;;;5.87;4.80;;;12.80;99.90;;;;;;2615445;54;20905;-78
2022/11/18 14:55:19;;;;;;;9.20;6.13;;;12.20;99.90;;;;;;2615377;54;20387;-78
2022/11/18 15:01:10;;;;;;;7.73;5.17;;;11.50;99.90;;;;;;2615257;54;20167;-81
2022/11/18 15:06:58;;;;;;;8.30;6.23;;;11.20;99.90;;;;;;2616662;54;20387;-77
2022/11/18 15:12:45;;;;;;;6.90;5.43;;;11.00;99.90;;;;;;2615525;54;20130;-79
2022/11/18 15:18:33;;;;;;;12.13;7.70;;;10.70;99.90;;;;;;2615135;54;20151;-78
2022/11/18 15:24:20;;;;;;;7.50;5.10;;;10.30;99.90;;;;;;2615212;54;20418;-79
2022/11/18 15:30:12;;;;;;;9.40;5.80;;;10.10;99.90;;;;;;2615402;54;20491;-79
2022/11/18 15:35:59;;;;;;;12.27;7.47;;;9.90;99.90;;;;;;2613763;54;20376;-80
2022/11/18 15:41:47;;;;;;;9.00;6.37;;;9.80;99.90;;;;;;2614029;54;20130;-79
2022/11/18 15:47:34;;;;;;;16.13;6.67;;;9.50;99.90;;;;;;2615354;54;20135;-78
2022/11/18 15:53:21;;;;;;;16.57;7.07;;;9.30;99.90;;;;;;2615821;54;20255;-79
2022/11/18 15:59:10;;;;;;;24.80;7.10;;;9.10;99.90;;;;;;2616136;54;20656;-78
2022/11/18 16:04:58;;;;;;;10.07;7.63;;;9.00;99.90;;;;;;2615739;54;20420;-79
2022/11/18 16:16:53;;;;;;;12.40;6.73;;;8.30;99.90;;;;;;2617545;54;20367;-79
2022/11/18 16:19:57;;;;;;;10.03;6.83;;;8.20;99.90;;;;;;2616270;47;20467;-79
2022/11/18 16:22:23;;;;;;;10.20;6.60;;;8.10;99.90;;;;;;2615825;54;20438;-79
2022/11/18 16:28:11;;;;;;;13.87;6.90;;;7.80;99.90;;;;;;2615737;54;20162;-77
2022/11/18 16:33:58;;;;;;;17.10;7.77;;;8.00;99.90;;;;;;2616899;54;20123;-79
2022/11/18 16:39:46;;;;;;;12.07;7.47;;;8.00;99.90;;;;;;2615239;47;20262;-79
2022/11/18 16:45:34;;;;;;;16.53;8.37;;;8.00;99.90;;;;;;2615194;54;20635;-79
2022/11/18 16:48:37;;;;;;;13.93;8.80;;;8.00;99.90;;;;;;2616869;54;20420;-81
2022/11/18 17:02:05;;;;;;;18.40;10.53;;;8.00;99.90;;;;;;2613687;39;20821;-78
2022/11/18 17:07:53;;;;;;;15.07;9.50;;;8.20;99.90;;;;;;2615322;54;20944;-80
2022/11/18 17:13:42;;;;;;;16.80;10.17;;;8.40;99.90;;;;;;2614830;54;20406;-78
2022/11/18 17:19:30;;;;;;;13.00;11.30;;;8.30;99.90;;;;;;2614216;54;20378;-78
2022/11/18 17:25:18;;;;;;;16.97;11.23;;;8.60;99.90;;;;;;2613968;54;20186;-78
2022/11/18 17:28:33;;;;;;;22.90;11.37;;;8.60;99.90;;;;;;2613640;47;20968;-80
2022/11/18 17:34:21;;;;;;;27.67;16.77;;;8.60;99.90;;;;;;2613276;39;20801;-78
2022/11/18 17:40:09;;;;;;;27.10;15.30;;;8.80;99.90;;;;;;2614593;54;20138;-77
2022/11/18 17:46:01;;;;;;;24.40;17.27;;;8.90;99.90;;;;;;2615033;54;20411;-79
2022/11/18 17:51:52;;;;;;;23.53;16.40;;;9.00;99.90;;;;;;2614810;54;20391;-79
2022/11/18 17:57:40;;;;;;;20.63;15.77;;;9.00;99.90;;;;;;2615948;54;20925;-79
2022/11/18 18:03:28;;;;;;;23.07;16.17;;;8.90;99.90;;;;;;2615565;54;20908;-77
2022/11/18 18:09:17;;;;;;;20.77;16.10;;;8.90;99.90;;;;;;2615269;54;20170;-79
2022/11/18 18:15:05;;;;;;;23.00;17.80;;;8.90;99.90;;;;;;2615958;54;20398;-78
2022/11/18 18:20:53;;;;;;;23.33;16.57;;;8.80;99.90;;;;;;2617453;54;20391;-78
2022/11/18 18:24:03;;;;;;;24.10;18.30;;;8.80;99.90;;;;;;2617186;39;20821;-78
2022/11/18 18:26:29;;;;;;;27.03;18.20;;;8.70;99.90;;;;;;2617806;46;20154;-78
2022/11/18 18:32:16;;;;;;;26.57;17.60;;;8.60;99.90;;;;;;2618192;54;20427;-78
2022/11/18 18:38:04;;;;;;;26.00;16.73;;;8.50;99.90;;;;;;2618813;54;20152;-79
2022/11/18 18:43:52;;;;;;;23.43;18.57;;;8.50;99.90;;;;;;2620292;54;20134;-79
2022/11/18 18:49:40;;;;;;;23.60;18.50;;;8.50;99.90;;;;;;2618370;54;20126;-78
2022/11/18 18:55:28;;;;;;;25.67;16.07;;;8.60;99.90;;;;;;2617894;54;20967;-77
2022/11/18 19:01:18;;;;;;;21.07;16.93;;;8.50;99.90;;;;;;2618123;39;20598;-78
2022/11/18 19:07:06;;;;;;;21.40;15.23;;;8.50;99.90;;;;;;2617119;39;21074;-77
2022/11/18 19:12:54;;;;;;;24.33;16.90;;;8.30;99.90;;;;;;2616903;54;20155;-76
2022/11/18 19:18:41;;;;;;;25.40;17.30;;;8.10;99.90;;;;;;2617426;54;20150;-75
2022/11/18 19:28:38;;;;;;;24.10;16.40;;;7.80;99.90;;;;;;2615601;39;20672;-77
2022/11/18 19:34:26;;;;;;;26.93;20.53;;;7.60;99.90;;;;;;2614968;54;20410;-74
2022/11/18 19:40:14;;;;;;;30.23;19.77;;;7.40;99.90;;;;;;2614532;54;20126;-76
2022/11/18 19:46:03;;;;;;;35.17;23.37;;;7.30;99.90;;;;;;2614827;54;20254;-76
2022/11/18 19:51:51;;;;;;;33.57;22.93;;;7.20;99.90;;;;;;2615238;54;20932;-76
2022/11/18 19:57:39;;;;;;;36.67;23.47;;;7.20;99.90;;;;;;2614328;54;20131;-76
2022/11/18 20:03:27;;;;;;;33.90;22.73;;;7.00;99.90;;;;;;2615659;54;20170;-75
2022/11/18 20:09:14;;;;;;;38.40;22.70;;;7.00;99.90;;;;;;2615600;54;20899;-76
2022/11/18 20:15:02;;;;;;;44.70;26.13;;;6.80;99.90;;;;;;2614671;54;20130;-75
2022/11/18 20:20:49;;;;;;;37.07;25.57;;;6.80;99.90;;;;;;2613864;54;20437;-76
2022/11/18 20:24:07;;;;;;;38.70;25.27;;;6.80;99.90;;;;;;2614067;54;20530;-75
2022/11/18 20:26:36;;;;;;;32.80;23.67;;;6.70;99.90;;;;;;2614388;54;20185;-77
2022/11/18 20:32:23;;;;;;;31.80;23.20;;;6.50;99.90;;;;;;2613982;54;20399;-75
2022/11/18 20:38:10;;;;;;;33.30;20.73;;;6.50;99.90;;;;;;2610427;54;20134;-76
2022/11/18 20:44:01;;;;;;;28.63;20.00;;;6.40;99.90;;;;;;2614748;39;20578;-75
2022/11/18 20:49:49;;;;;;;23.57;16.50;;;6.20;99.90;;;;;;2612667;39;20872;-75
2022/11/18 20:55:37;;;;;;;24.60;18.03;;;6.10;99.90;;;;;;2615298;54;20693;-75
2022/11/18 21:01:26;;;;;;;20.20;16.17;;;6.00;99.90;;;;;;2614228;54;20155;-76
2022/11/18 21:07:15;;;;;;;24.00;16.20;;;6.00;99.90;;;;;;2615643;54;20398;-75
2022/11/18 21:19:10;;;;;;;24.37;17.50;;;6.00;99.90;;;;;;2613771;54;20491;-76
2022/11/18 21:28:45;;;;;;;24.80;15.70;;;5.70;99.90;;;;;;2615120;54;20394;-75
2022/11/18 21:34:33;;;;;;;22.27;15.07;;;5.70;99.90;;;;;;2615439;54;20395;-76
2022/11/18 21:40:21;;;;;;;22.47;14.67;;;5.60;99.90;;;;;;2614487;54;20142;-76
2022/11/18 21:46:11;;;;;;;21.57;17.00;;;5.60;99.90;;;;;;2610667;54;20134;-74
2022/11/18 21:51:59;;;;;;;17.43;14.53;;;5.30;99.90;;;;;;2613575;39;20465;-76
2022/11/18 21:57:47;;;;;;;17.07;12.70;;;5.30;99.90;;;;;;2614544;54;20134;-75
2022/11/18 22:03:36;;;;;;;14.53;12.33;;;5.30;99.90;;;;;;2614797;54;20789;-75
2022/11/18 22:09:24;;;;;;;12.67;11.37;;;5.10;99.90;;;;;;2613963;54;20469;-75
2022/11/18 22:15:12;;;;;;;15.40;10.67;;;5.20;99.90;;;;;;2614114;54;20278;-76
2022/11/18 22:21:01;;;;;;;12.73;9.30;;;5.00;99.90;;;;;;2613866;54;20326;-76
2022/11/18 22:26:49;;;;;;;14.00;10.30;;;4.90;99.90;;;;;;2613473;54;20434;-74
2022/11/18 22:32:37;;;;;;;13.10;10.10;;;4.90;99.90;;;;;;2612964;54;20130;-77
2022/11/18 22:38:25;;;;;;;12.17;10.70;;;5.00;99.90;;;;;;2613546;54;20135;-76
2022/11/18 22:44:16;;;;;;;15.07;10.80;;;5.00;99.90;;;;;;2612925;54;20237;-75
2022/11/18 22:47:19;;;;;;;11.43;10.30;;;4.90;99.90;;;;;;2612017;47;20550;-75
2022/11/18 22:49:45;;;;;;;14.20;10.77;;;4.90;99.90;;;;;;2613242;54;20426;-76
2022/11/18 22:55:33;;;;;;;13.43;9.30;;;4.70;99.90;;;;;;2614731;54;20139;-76
2022/11/18 23:01:22;;;;;;;12.33;10.43;;;4.70;99.90;;;;;;2614097;54;20150;-75
2022/11/18 23:07:09;;;;;;;10.70;9.60;;;4.70;99.90;;;;;;2614585;54;20394;-76
2022/11/18 23:29:21;;;;;;;10.77;8.70;;;4.60;99.90;;;;;;2615027;39;20666;-76
2022/11/18 23:35:08;;;;;;;10.77;8.17;;;4.60;99.90;;;;;;2615874;54;20419;-75
2022/11/18 23:40:57;;;;;;;9.80;8.80;;;4.60;99.90;;;;;;2616069;54;20133;-76
2022/11/18 23:46:45;;;;;;;9.73;8.40;;;4.50;99.90;;;;;;2615585;54;20407;-75
2022/11/18 23:52:33;;;;;;;9.60;8.00;;;4.40;99.90;;;;;;2614508;54;20129;-76
2022/11/18 23:58:21;;;;;;;9.97;7.97;;;4.40;99.90;;;;;;2614952;54;20134;-75
